createdAt,value
2022-12-12T12:23:58.786Z,1008.60
2022-12-12T12:24:58.705Z,1008.55
2022-12-12T12:25:58.645Z,1008.58
2022-12-12T12:26:58.592Z,1008.61
2022-12-12T12:27:58.535Z,1008.61
2022-12-12T12:28:58.486Z,1008.64
2022-12-12T12:29:58.760Z,1008.57
2022-12-12T12:30:58.447Z,1008.60
2022-12-12T12:31:58.325Z,1008.62
2022-12-12T12:32:58.292Z,1008.63
2022-12-12T12:33:58.237Z,1008.64
2022-12-12T12:34:58.193Z,1008.63
2022-12-12T12:35:58.130Z,1008.65
2022-12-12T12:36:58.091Z,1008.65
2022-12-12T12:37:58.021Z,1008.67
2022-12-12T12:38:57.972Z,1008.66
2022-12-12T12:39:57.944Z,1008.65
2022-12-12T12:40:58.340Z,1008.63
2022-12-12T12:41:57.820Z,1008.67
2022-12-12T12:42:57.776Z,1008.67
2022-12-12T12:43:57.727Z,1008.66
2022-12-12T12:44:57.681Z,1008.68
2022-12-12T12:45:57.711Z,1008.64
2022-12-12T12:46:57.580Z,1008.68
2022-12-12T12:47:57.527Z,1008.65
2022-12-12T12:48:57.478Z,1008.65
2022-12-12T12:49:57.430Z,1008.63
2022-12-12T12:50:57.379Z,1008.64
2022-12-12T12:51:57.331Z,1008.60
2022-12-12T12:52:57.295Z,1008.61
2022-12-12T12:53:57.232Z,1008.59
2022-12-12T12:54:57.184Z,1008.59
2022-12-12T12:55:57.152Z,1008.62
2022-12-12T12:56:57.091Z,1008.57
2022-12-12T12:57:57.035Z,1008.60
2022-12-12T12:58:56.989Z,1008.61
2022-12-12T12:59:56.938Z,1008.63
2022-12-12T13:00:56.890Z,1008.62
2022-12-12T13:01:56.876Z,1008.67
2022-12-12T13:02:56.849Z,1008.61
2022-12-12T13:03:56.746Z,1008.60
2022-12-12T13:04:56.698Z,1008.64
2022-12-12T13:05:56.652Z,1008.60
2022-12-12T13:06:56.600Z,1008.65
2022-12-12T13:07:56.599Z,1008.62
2022-12-12T13:08:56.506Z,1008.60
2022-12-12T13:09:56.457Z,1008.59
2022-12-12T19:01:19.766Z,1008.90
2022-12-12T19:02:19.645Z,1008.92
2022-12-12T19:03:19.595Z,1008.91
2022-12-12T19:04:23.532Z,1008.97
2022-12-12T19:05:19.436Z,1008.92
2022-12-12T19:06:19.381Z,1008.88
2022-12-12T19:07:19.325Z,1008.85
2022-12-12T19:08:19.305Z,1008.88
2022-12-12T19:09:19.219Z,1008.93
2022-12-12T19:10:19.163Z,1008.89
2022-12-12T19:11:19.112Z,1008.90
2022-12-12T19:12:19.055Z,1008.88
2022-12-12T19:13:19.004Z,1008.94
2022-12-12T19:14:18.948Z,1008.90
2022-12-12T19:15:18.908Z,1008.92
2022-12-12T19:16:18.897Z,1008.91
2022-12-12T19:17:25.253Z,1008.92
2022-12-12T19:18:18.734Z,1008.96
2022-12-12T19:19:18.685Z,1008.97
2022-12-12T19:20:18.631Z,1008.96
2022-12-12T19:21:18.584Z,1008.92
2022-12-12T19:22:43.826Z,1008.92
2022-12-12T19:23:18.472Z,1008.91
2022-12-12T19:24:18.423Z,1008.92
2022-12-12T19:25:18.381Z,1008.90
2022-12-12T19:26:18.319Z,1008.89
2022-12-12T19:27:18.267Z,1008.85
2022-12-12T19:28:18.216Z,1008.87
2022-12-12T19:29:18.164Z,1008.83
2022-12-12T19:30:18.477Z,1008.84
2022-12-12T19:31:18.122Z,1008.85
2022-12-12T19:32:18.015Z,1008.89
2022-12-12T19:33:17.977Z,1008.85
2022-12-12T19:34:17.911Z,1008.87
2022-12-12T19:35:17.892Z,1008.88
2022-12-12T19:36:17.808Z,1008.87
2022-12-12T19:37:17.753Z,1008.87
2022-12-12T19:38:24.154Z,1008.83
2022-12-12T19:39:17.649Z,1008.93
2022-12-12T19:40:17.820Z,1008.91
2022-12-12T19:41:17.548Z,1008.94
2022-12-12T19:42:17.498Z,1008.89
2022-12-12T19:43:17.447Z,1008.88
2022-12-12T19:44:17.394Z,1008.89
2022-12-12T19:45:17.343Z,1008.90
2022-12-12T19:46:17.319Z,1008.89
2022-12-12T19:47:17.242Z,1008.88
2022-12-12T19:48:17.196Z,1008.88
2022-12-12T19:49:17.155Z,1008.88
2022-12-12T19:50:17.453Z,1008.92
2022-12-12T19:52:16.987Z,1008.88
2022-12-12T19:53:16.940Z,1008.90
2022-12-12T19:54:16.886Z,1008.92
2022-12-12T19:55:16.871Z,1008.92
2022-12-12T19:56:16.791Z,1008.91
2022-12-12T19:57:17.344Z,1008.90
2022-12-12T19:58:16.680Z,1008.91
2022-12-12T19:59:16.653Z,1008.92
2022-12-12T20:00:16.867Z,1008.94
2022-12-12T20:01:16.570Z,1008.92
2022-12-12T20:02:16.544Z,1008.93
2022-12-12T20:03:16.437Z,1008.91
2022-12-12T20:04:16.374Z,1008.96
2022-12-12T20:05:16.352Z,1008.93
2022-12-12T20:06:16.270Z,1008.99
2022-12-12T20:07:16.222Z,1008.99
2022-12-12T20:08:16.259Z,1008.99
2022-12-12T20:09:16.143Z,1008.94
2022-12-12T20:10:16.415Z,1009.02
2022-12-12T20:11:16.038Z,1008.99
2022-12-12T20:12:15.962Z,1008.97
2022-12-12T20:13:15.944Z,1008.97
2022-12-12T20:14:15.871Z,1008.96
2022-12-12T20:15:15.848Z,1009.02
2022-12-12T20:16:15.808Z,1009.00
2022-12-12T20:17:15.776Z,1008.98
2022-12-12T20:18:16.637Z,1008.99
2022-12-12T20:19:15.657Z,1009.00
2022-12-12T20:20:15.918Z,1008.96
2022-12-12T20:21:36.294Z,1008.95
2022-12-12T20:22:15.456Z,1008.99
2022-12-12T20:23:15.444Z,1008.97
2022-12-12T20:24:15.351Z,1008.94
2022-12-12T20:25:15.305Z,1008.93
2022-12-12T20:26:15.254Z,1008.95
2022-12-12T20:27:15.276Z,1008.99
2022-12-12T20:28:15.156Z,1008.94
2022-12-12T20:29:15.100Z,1008.93
2022-12-12T20:30:15.314Z,1008.92
2022-12-12T20:31:15.066Z,1008.96
2022-12-12T20:32:14.947Z,1008.94
2022-12-12T20:33:14.896Z,1008.97
2022-12-12T20:34:14.843Z,1008.98
2022-12-12T20:35:14.793Z,1008.98
2022-12-12T20:36:14.741Z,1008.97
2022-12-12T20:37:19.728Z,1008.99
2022-12-12T20:38:14.638Z,1009.04
2022-12-12T20:39:14.592Z,1009.06
2022-12-12T20:40:14.881Z,1009.05
2022-12-12T20:41:14.487Z,1009.08
2022-12-12T20:42:14.437Z,1009.12
2022-12-12T20:43:14.409Z,1009.15
2022-12-12T20:44:14.369Z,1009.13
2022-12-12T20:45:14.448Z,1009.14
2022-12-12T20:46:14.292Z,1009.13
2022-12-12T20:47:14.190Z,1009.13
2022-12-12T20:48:14.131Z,1009.16
2022-12-12T20:49:14.081Z,1009.13
2022-12-12T20:50:14.037Z,1009.14
2022-12-12T20:51:45.617Z,1009.12
2022-12-12T20:52:13.930Z,1009.16
2022-12-12T20:53:13.899Z,1009.16
2022-12-12T20:54:13.825Z,1009.11
2022-12-12T20:55:14.077Z,1009.14
2022-12-12T20:56:13.725Z,1009.13
2022-12-12T20:57:13.679Z,1009.10
2022-12-12T20:58:13.620Z,1009.11
2022-12-12T20:59:13.576Z,1009.09
2022-12-12T21:00:13.801Z,1009.16
2022-12-12T21:01:13.551Z,1009.15
2022-12-12T21:02:13.420Z,1009.20
2022-12-12T21:03:13.420Z,1009.18
2022-12-12T21:04:13.314Z,1009.17
2022-12-12T21:05:13.523Z,1009.22
2022-12-12T21:06:13.291Z,1009.21
2022-12-12T21:07:13.159Z,1009.20
2022-12-12T21:08:13.283Z,1009.24
2022-12-12T21:09:19.219Z,1009.26
2022-12-12T21:10:13.032Z,1009.22
2022-12-12T21:11:12.957Z,1009.24
2022-12-12T21:12:12.924Z,1009.19
2022-12-12T21:13:12.859Z,1009.18
2022-12-12T21:14:12.802Z,1009.19
2022-12-12T21:15:12.753Z,1009.20
2022-12-12T21:16:12.735Z,1009.18
2022-12-12T21:17:12.652Z,1009.17
2022-12-12T21:18:12.595Z,1009.16
2022-12-12T21:19:12.549Z,1009.16
2022-12-12T21:20:12.494Z,1009.17
2022-12-12T21:21:12.446Z,1009.15
2022-12-12T21:22:12.393Z,1009.13
2022-12-12T21:23:12.342Z,1009.13
2022-12-12T21:25:12.592Z,1009.11
2022-12-12T21:26:16.721Z,1009.14
2022-12-12T21:27:12.135Z,1009.14
2022-12-12T21:28:12.085Z,1009.12
2022-12-12T21:29:12.031Z,1009.13
2022-12-12T21:30:11.990Z,1009.13
2022-12-12T21:31:11.998Z,1009.13
2022-12-12T21:32:11.883Z,1009.14
2022-12-12T21:33:11.828Z,1009.19
2022-12-12T21:34:11.777Z,1009.15
2022-12-12T21:35:12.262Z,1009.13
2022-12-12T21:36:11.675Z,1009.12
2022-12-12T21:37:11.622Z,1009.12
2022-12-12T21:38:11.575Z,1009.14
2022-12-12T21:39:11.730Z,1009.13
2022-12-12T21:40:11.470Z,1009.13
2022-12-12T21:41:11.443Z,1009.14
2022-12-12T21:42:11.368Z,1009.18
2022-12-12T21:43:11.316Z,1009.17
2022-12-12T21:44:11.271Z,1009.19
2022-12-12T21:45:11.706Z,1009.13
2022-12-12T21:46:11.209Z,1009.15
2022-12-12T21:47:11.109Z,1009.17
2022-12-12T21:48:11.062Z,1009.15
2022-12-12T21:49:11.016Z,1009.09
2022-12-12T21:50:10.957Z,1009.12
2022-12-12T21:51:10.904Z,1009.07
2022-12-12T21:52:10.855Z,1009.08
2022-12-12T21:53:10.811Z,1009.07
2022-12-12T21:54:10.751Z,1009.04
2022-12-12T21:55:10.701Z,1009.03
2022-12-12T21:56:10.651Z,1009.08
2022-12-12T21:57:10.616Z,1009.07
2022-12-12T21:58:10.576Z,1009.11
2022-12-12T21:59:10.495Z,1009.11
2022-12-12T22:00:10.444Z,1009.15
2022-12-12T22:01:10.463Z,1009.13
2022-12-12T22:02:10.340Z,1009.14
2022-12-12T22:03:10.317Z,1009.15
2022-12-12T22:04:10.238Z,1009.14
2022-12-12T22:05:10.186Z,1009.16
2022-12-12T22:06:10.139Z,1009.12
2022-12-12T22:07:10.083Z,1009.15
2022-12-12T22:08:10.122Z,1009.14
2022-12-12T22:09:09.989Z,1009.18
2022-12-12T22:10:10.923Z,1009.16
2022-12-12T22:11:09.879Z,1009.13
2022-12-12T22:12:09.825Z,1009.19
2022-12-12T22:13:09.793Z,1009.16
